Time;durP1;ratioP1;P1;durP2;ratioP2;P2;SDS_P1;SDS_P2;PMS_P1;PMS_P2;Temp;Humidity;BMP_temperature;BMP_pressure;BME280_temperature;BME280_humidity;BME280_pressure;Samples;Min_cycle;Max_cycle;Signal;HPM_P1;HPM_P2
2023/10/16 00:00:29;;;;;;;2.90;1.50;;;;;0.40;94631.00;;;;7400502;19;20650;-77
2023/10/16 00:03:01;;;;;;;1.77;1.47;;;;;0.40;94629.00;;;;7398506;19;20181;-80
2023/10/16 00:05:44;;;;;;;2.10;1.63;;;;;0.50;94619.00;;;;7397912;19;20155;-79
2023/10/16 00:08:19;;;;;;;3.33;1.60;;;;;0.40;94620.00;;;;7399473;19;20163;-79
2023/10/16 00:11:01;;;;;;;4.37;1.77;;;;;0.50;94619.00;;;;7399109;19;20153;-78
2023/10/16 00:13:39;;;;;;;4.43;1.70;;;;;0.30;94619.00;;;;7399956;19;20144;-76
2023/10/16 00:16:15;;;;;;;2.53;1.70;;;;;0.30;94619.00;;;;7398108;19;20208;-77
2023/10/16 00:18:59;;;;;;;3.37;1.60;;;;;0.50;94616.00;;;;7398645;19;20164;-76
2023/10/16 00:21:43;;;;;;;6.50;1.80;;;;;0.60;94615.00;;;;7399952;19;20151;-77
2023/10/16 00:24:18;;;;;;;3.53;1.60;;;;;0.60;94614.00;;;;7398872;19;20153;-76
2023/10/16 00:26:49;;;;;;;2.23;1.70;;;;;0.80;94607.00;;;;7398143;19;20465;-76
2023/10/16 00:29:24;;;;;;;3.47;1.77;;;;;0.80;94603.00;;;;7399888;19;20152;-76
2023/10/16 00:32:07;;;;;;;4.43;1.70;;;;;0.70;94603.00;;;;7397667;19;20149;-77
2023/10/16 00:34:35;;;;;;;4.20;1.90;;;;;0.70;94600.00;;;;7400767;19;20149;-76
2023/10/16 00:37:10;;;;;;;5.13;1.70;;;;;0.40;94611.00;;;;7401700;19;20603;-78
2023/10/16 00:39:44;;;;;;;3.57;2.10;;;;;0.50;94605.00;;;;7400250;19;20235;-77
2023/10/16 00:42:18;;;;;;;3.10;1.70;;;;;0.60;94600.00;;;;7398703;19;20149;-76
2023/10/16 00:44:47;;;;;;;4.70;2.23;;;;;0.80;94602.00;;;;7398601;19;20149;-76
2023/10/16 00:47:21;;;;;;;2.70;1.70;;;;;0.80;94608.00;;;;7399755;19;20154;-76
2023/10/16 00:49:50;;;;;;;5.13;1.77;;;;;0.60;94599.00;;;;7399414;19;20136;-77
2023/10/16 00:52:25;;;;;;;2.30;1.77;;;;;0.50;94591.00;;;;7397144;19;20932;-79
2023/10/16 00:55:00;;;;;;;2.40;1.90;;;;;0.60;94593.00;;;;7399458;19;20148;-76
2023/10/16 00:57:39;;;;;;;3.07;2.07;;;;;0.70;94585.00;;;;7397711;19;20132;-79
2023/10/16 01:00:12;;;;;;;2.57;1.57;;;;;0.70;94585.00;;;;7398758;19;20485;-78
2023/10/16 01:02:47;;;;;;;4.50;2.00;;;;;0.60;94581.00;;;;7398593;19;20137;-78
2023/10/16 01:05:23;;;;;;;3.53;2.17;;;;;0.60;94569.00;;;;7398910;19;20192;-78
2023/10/16 01:07:58;;;;;;;4.50;2.00;;;;;0.60;94569.00;;;;7396659;19;20164;-77
2023/10/16 01:10:32;;;;;;;5.43;2.10;;;;;0.60;94580.00;;;;7397986;19;20171;-77
2023/10/16 01:13:02;;;;;;;3.13;1.80;;;;;0.60;94566.00;;;;7398244;19;20208;-77
2023/10/16 01:15:46;;;;;;;5.70;1.80;;;;;0.70;94560.00;;;;7397542;19;20140;-79
2023/10/16 01:18:21;;;;;;;1.90;1.70;;;;;0.70;94557.00;;;;7397847;19;20133;-76
2023/10/16 01:21:05;;;;;;;6.07;2.07;;;;;0.50;94557.00;;;;7396708;19;20144;-79
2023/10/16 01:23:43;;;;;;;1.97;1.67;;;;;0.30;94551.00;;;;7395950;19;20450;-77
2023/10/16 01:26:18;;;;;;;2.83;2.00;;;;;0.30;94547.00;;;;7396217;19;20132;-78
2023/10/16 01:28:46;;;;;;;4.23;1.93;;;;;0.40;94556.00;;;;7398905;19;20133;-78
2023/10/16 01:31:21;;;;;;;4.27;1.70;;;;;0.50;94550.00;;;;7396335;19;20146;-77
2023/10/16 01:33:51;;;;;;;5.80;1.97;;;;;0.50;94544.00;;;;7397554;19;20129;-78
2023/10/16 01:36:25;;;;;;;6.20;2.43;;;;;0.60;94548.00;;;;7397822;19;20151;-77
2023/10/16 01:38:53;;;;;;;5.37;2.00;;;;;0.50;94554.00;;;;7397623;19;20136;-78
2023/10/16 01:41:29;;;;;;;2.47;1.73;;;;;0.50;94549.00;;;;7398445;19;20132;-78
2023/10/16 01:43:58;;;;;;;2.77;1.53;;;;;0.50;94544.00;;;;7397345;19;20147;-76
2023/10/16 01:46:26;;;;;;;4.87;2.10;;;;;0.50;94538.00;;;;7395724;19;20521;-77
2023/10/16 01:49:01;;;;;;;6.33;2.00;;;;;0.50;94546.00;;;;7397370;19;20577;-79
2023/10/16 01:51:30;;;;;;;4.17;2.33;;;;;0.40;94539.00;;;;7397110;19;20150;-77
2023/10/16 01:53:57;;;;;;;3.50;1.60;;;;;0.40;94546.00;;;;7394232;19;20595;-78
2023/10/16 01:56:34;;;;;;;3.67;1.60;;;;;0.30;94535.00;;;;7396756;19;20240;-77
2023/10/16 01:59:08;;;;;;;3.60;1.87;;;;;0.40;94532.00;;;;7396976;19;20133;-76
2023/10/16 02:01:42;;;;;;;8.30;2.13;;;;;0.50;94536.00;;;;7394659;19;20478;-77
2023/10/16 02:04:10;;;;;;;2.77;1.80;;;;;0.40;94526.00;;;;7396083;19;20133;-79
2023/10/16 02:06:46;;;;;;;7.13;2.20;;;;;0.40;94527.00;;;;7395405;19;20146;-79
2023/10/16 02:09:23;;;;;;;3.60;1.87;;;;;0.40;94517.00;;;;7395000;19;20129;-79
2023/10/16 02:12:01;;;;;;;4.43;2.03;;;;;0.40;94516.00;;;;7395257;19;20612;-76
2023/10/16 02:14:29;;;;;;;7.90;2.10;;;;;0.30;94513.00;;;;7396477;19;20596;-77
2023/10/16 02:17:04;;;;;;;7.00;1.90;;;;;0.30;94509.00;;;;7395252;19;20169;-77
2023/10/16 02:19:45;;;;;;;7.00;2.30;;;;;0.40;94506.00;;;;7395347;19;20268;-79
2023/10/16 02:22:26;;;;;;;4.67;2.23;;;;;0.40;94505.00;;;;7394619;19;20235;-77
2023/10/16 02:25:01;;;;;;;8.60;2.20;;;;;0.40;94510.00;;;;7394629;19;20588;-76
2023/10/16 02:27:28;;;;;;;5.20;2.30;;;;;0.40;94511.00;;;;7395361;19;20624;-77
2023/10/16 02:30:20;;;;;;;2.93;2.03;;;;;0.40;94513.00;;;;7395360;19;20158;-77
2023/10/16 02:33:12;;;;;;;3.53;2.30;;;;;0.40;94513.00;;;;7392380;19;20172;-77
2023/10/16 02:35:47;;;;;;;2.77;2.27;;;;;0.40;94519.00;;;;7397654;19;20152;-76
2023/10/16 02:38:23;;;;;;;5.90;2.00;;;;;0.50;94502.00;;;;7404343;19;20125;-79
2023/10/16 02:40:53;;;;;;;9.20;2.30;;;;;0.40;94505.00;;;;7404428;19;20603;-78
2023/10/16 02:43:31;;;;;;;5.00;2.47;;;;;0.40;94507.00;;;;7403482;19;20132;-78
2023/10/16 02:46:01;;;;;;;6.70;2.60;;;;;0.30;94500.00;;;;7402579;19;20148;-75
2023/10/16 02:48:35;;;;;;;5.90;2.70;;;;;0.50;94507.00;;;;7399187;19;20493;-75
2023/10/16 02:51:06;;;;;;;4.07;2.47;;;;;0.50;94506.00;;;;7392340;19;20172;-76
2023/10/16 02:53:36;;;;;;;3.33;1.97;;;;;0.50;94504.00;;;;7401598;19;20177;-77
2023/10/16 02:56:22;;;;;;;6.43;2.37;;;;;0.40;94506.00;;;;7401186;19;20181;-74
2023/10/16 02:58:55;;;;;;;4.47;2.20;;;;;0.40;94514.00;;;;7401456;19;20149;-76
2023/10/16 03:01:29;;;;;;;3.40;2.53;;;;;0.50;94504.00;;;;7401908;19;20159;-76
2023/10/16 03:04:05;;;;;;;7.10;2.57;;;;;0.50;94514.00;;;;7399834;19;20157;-75
2023/10/16 03:06:40;;;;;;;8.07;2.73;;;;;0.30;94515.00;;;;7401098;19;20624;-76
2023/10/16 03:09:37;;;;;;;5.63;2.23;;;;;0.30;94501.00;;;;7401763;19;20143;-75
2023/10/16 03:12:13;;;;;;;4.87;3.00;;;;;0.50;94504.00;;;;7400107;19;20141;-76
2023/10/16 03:14:58;;;;;;;8.13;2.97;;;;;0.50;94498.00;;;;7401052;19;20496;-75
2023/10/16 03:20:35;;;;;;;5.00;2.97;;;;;0.40;94513.00;;;;7399005;19;20645;-75
2023/10/16 03:23:12;;;;;;;5.90;3.03;;;;;0.50;94506.00;;;;7401916;19;20492;-75
2023/10/16 03:25:51;;;;;;;6.83;2.80;;;;;0.40;94491.00;;;;7401256;19;20133;-74
2023/10/16 03:28:19;;;;;;;5.20;3.03;;;;;0.40;94496.00;;;;7399521;19;20145;-77
2023/10/16 03:30:59;;;;;;;7.43;3.23;;;;;0.30;94492.00;;;;7400157;19;20128;-76
2023/10/16 03:33:27;;;;;;;4.33;3.07;;;;;0.30;94486.00;;;;7397920;19;20145;-76
2023/10/16 03:36:04;;;;;;;13.33;5.43;;;;;0.40;94483.00;;;;7399924;19;20128;-77
2023/10/16 03:38:38;;;;;;;6.97;4.07;;;;;0.50;94479.00;;;;7400749;19;20148;-75
2023/10/16 03:41:19;;;;;;;11.33;4.47;;;;;0.50;94474.00;;;;7399748;19;20140;-77
2023/10/16 03:46:55;;;;;;;6.87;4.37;;;;;0.40;94480.00;;;;7396963;19;20152;-75
2023/10/16 03:49:31;;;;;;;7.10;5.23;;;;;0.50;94470.00;;;;7400717;19;20212;-76
2023/10/16 03:52:07;;;;;;;7.97;4.63;;;;;0.60;94468.00;;;;7398375;19;20156;-75
2023/10/16 03:54:35;;;;;;;9.00;4.77;;;;;0.50;94469.00;;;;7399327;19;20144;-75
2023/10/16 03:57:09;;;;;;;8.03;4.87;;;;;0.50;94468.00;;;;7400213;19;20212;-76
2023/10/16 03:59:47;;;;;;;13.13;4.87;;;;;0.50;94473.00;;;;7399731;19;20566;-75
2023/10/16 04:02:23;;;;;;;8.87;4.57;;;;;0.60;94467.00;;;;7399018;19;20659;-76
2023/10/16 04:04:53;;;;;;;9.93;4.97;;;;;0.60;94454.00;;;;7401304;19;20140;-75
2023/10/16 04:07:31;;;;;;;8.87;5.07;;;;;0.60;94457.00;;;;7400433;19;20132;-75
2023/10/16 04:10:21;;;;;;;8.80;4.30;;;;;0.60;94464.00;;;;7398930;19;20173;-76
2023/10/16 04:12:55;;;;;;;9.43;5.90;;;;;0.60;94453.00;;;;7400910;19;20129;-75
2023/10/16 04:15:48;;;;;;;10.03;4.77;;;;;0.60;94453.00;;;;7402659;19;20493;-75
2023/10/16 04:26:29;;;;;;;14.00;7.73;;;;;0.60;94458.00;;;;7398784;19;20156;-75
2023/10/16 04:31:44;;;;;;;11.70;5.17;;;;;0.40;94461.00;;;;7399448;19;20132;-75
2023/10/16 04:45:39;;;;;;;9.30;5.10;;;;;0.00;94451.00;;;;7399042;19;20141;-76
2023/10/16 04:48:59;;;;;;;13.27;5.53;;;;;-0.10;94446.00;;;;7399372;19;20136;-76
2023/10/16 04:51:16;;;;;;;14.27;6.13;;;;;-0.10;94446.00;;;;7398301;19;20153;-75
2023/10/16 04:54:16;;;;;;;10.80;5.73;;;;;0.00;94448.00;;;;7398877;19;20128;-75
2023/10/16 05:00:12;;;;;;;11.20;6.50;;;;;0.30;94448.00;;;;7397253;19;20137;-74
2023/10/16 05:03:22;;;;;;;9.37;6.00;;;;;0.30;94447.00;;;;7398672;19;20550;-76
2023/10/16 05:06:04;;;;;;;11.93;6.17;;;;;0.30;94437.00;;;;7383850;19;24383;-77
2023/10/16 05:08:48;;;;;;;11.77;6.60;;;;;0.20;94439.00;;;;7385411;19;20606;-79
2023/10/16 05:11:36;;;;;;;12.03;6.80;;;;;0.10;94444.00;;;;7385355;19;20176;-78
2023/10/16 05:14:22;;;;;;;12.30;6.37;;;;;0.00;94435.00;;;;7386847;19;20217;-76
2023/10/16 06:14:45;;;;;;;23.13;9.50;;;;;0.70;94433.00;;;;7393349;19;20129;-80
2023/10/16 06:17:23;;;;;;;17.70;9.10;;;;;0.80;94440.00;;;;7392450;19;20163;-76
2023/10/16 06:19:57;;;;;;;15.43;8.60;;;;;0.80;94437.00;;;;7390708;19;20192;-78
2023/10/16 06:22:50;;;;;;;16.10;9.60;;;;;0.90;94437.00;;;;7391270;19;20208;-79
2023/10/16 06:25:28;;;;;;;17.50;10.00;;;;;1.00;94433.00;;;;7389545;19;20198;-77
2023/10/16 06:28:11;;;;;;;24.20;13.10;;;;;1.10;94434.00;;;;7391054;19;20168;-78
2023/10/16 06:30:45;;;;;;;27.97;14.00;;;;;1.30;94439.00;;;;7391945;19;20188;-79
2023/10/16 06:33:24;;;;;;;23.03;13.27;;;;;1.50;94436.00;;;;7390068;19;20512;-79
2023/10/16 06:35:54;;;;;;;21.90;12.97;;;;;1.80;94439.00;;;;7391800;19;20165;-78
2023/10/16 06:38:36;;;;;;;23.10;12.97;;;;;2.10;94441.00;;;;7392280;19;20245;-81
2023/10/16 06:41:15;;;;;;;22.43;12.43;;;;;2.30;94440.00;;;;7392232;19;20132;-80
2023/10/16 06:43:50;;;;;;;18.33;11.10;;;;;2.50;94445.00;;;;7392374;19;20168;-77
2023/10/16 06:46:27;;;;;;;19.43;12.53;;;;;2.60;94442.00;;;;7390636;19;20137;-77
2023/10/16 06:49:08;;;;;;;19.97;9.57;;;;;2.80;94446.00;;;;7390320;19;20149;-78
2023/10/16 06:51:44;;;;;;;20.13;9.53;;;;;2.70;94442.00;;;;7387930;19;20667;-78
2023/10/16 06:54:19;;;;;;;16.90;9.57;;;;;2.80;94447.00;;;;7390736;19;20128;-79
2023/10/16 06:56:54;;;;;;;20.87;10.97;;;;;2.80;94438.00;;;;7389459;19;20152;-76
2023/10/16 06:59:22;;;;;;;18.70;10.23;;;;;2.90;94433.00;;;;7390124;19;20133;-76
2023/10/16 07:01:57;;;;;;;17.57;11.07;;;;;3.10;94439.00;;;;7388664;19;20153;-78
2023/10/16 07:04:31;;;;;;;18.17;9.93;;;;;3.30;94443.00;;;;7387719;19;20505;-77
2023/10/16 07:07:14;;;;;;;22.07;9.73;;;;;3.30;94442.00;;;;7388926;19;20500;-77
2023/10/16 07:09:52;;;;;;;13.60;8.87;;;;;3.50;94441.00;;;;7391171;19;20133;-78
2023/10/16 07:12:53;;;;;;;18.00;8.97;;;;;3.90;94438.00;;;;7388921;19;20495;-80
2023/10/16 07:15:25;;;;;;;16.77;8.80;;;;;4.00;94436.00;;;;7388512;19;20608;-77
2023/10/16 07:18:06;;;;;;;18.27;8.93;;;;;4.30;94428.00;;;;7390310;19;20140;-76
2023/10/16 07:21:07;;;;;;;16.47;8.37;;;;;4.20;94444.00;;;;7388625;19;20149;-78
2023/10/16 07:23:43;;;;;;;13.50;7.23;;;;;4.30;94444.00;;;;7390411;19;20129;-75
2023/10/16 07:26:18;;;;;;;13.50;7.20;;;;;4.50;94450.00;;;;7389153;19;20144;-76
2023/10/16 07:28:52;;;;;;;12.23;7.53;;;;;4.70;94443.00;;;;7389319;19;20139;-77
2023/10/16 07:31:22;;;;;;;15.37;10.93;;;;;5.20;94441.00;;;;7388058;19;20169;-76
2023/10/16 07:34:04;;;;;;;15.67;10.13;;;;;5.50;94451.00;;;;7389498;19;20140;-77
2023/10/16 07:36:32;;;;;;;14.50;8.50;;;;;5.40;94441.00;;;;7387614;19;20159;-76
2023/10/16 07:39:06;;;;;;;19.87;9.80;;;;;5.90;94446.00;;;;7388374;19;20148;-75
2023/10/16 07:41:37;;;;;;;8.77;6.13;;;;;5.90;94428.00;;;;7389826;19;20640;-75
2023/10/16 07:44:19;;;;;;;18.67;10.00;;;;;6.40;94428.00;;;;7392377;19;20142;-76
2023/10/16 07:46:48;;;;;;;14.90;7.40;;;;;6.70;94427.00;;;;7389353;19;20487;-76
2023/10/16 07:49:25;;;;;;;11.37;6.70;;;;;6.60;94420.00;;;;7388601;19;20144;-74
2023/10/16 07:51:55;;;;;;;12.73;7.13;;;;;7.10;94434.00;;;;7388170;19;20173;-75
2023/10/16 07:54:29;;;;;;;9.80;6.50;;;;;7.10;94438.00;;;;7389775;19;20147;-75
2023/10/16 07:57:06;;;;;;;9.50;5.77;;;;;7.30;94423.00;;;;7389239;19;20138;-76
2023/10/16 07:59:36;;;;;;;18.53;6.60;;;;;7.40;94436.00;;;;7388708;19;20581;-77
2023/10/16 08:02:17;;;;;;;7.27;5.37;;;;;7.60;94422.00;;;;7388179;19;20187;-77
2023/10/16 08:04:51;;;;;;;7.63;5.20;;;;;7.50;94422.00;;;;7389206;19;20144;-77
2023/10/16 08:07:46;;;;;;;7.40;4.17;;;;;7.80;94425.00;;;;7388588;19;20153;-75
2023/10/16 08:10:41;;;;;;;6.70;3.83;;;;;7.90;94427.00;;;;7388064;19;20643;-75
2023/10/16 08:13:18;;;;;;;5.03;2.90;;;;;8.20;94427.00;;;;7388872;19;20148;-75
2023/10/16 08:15:49;;;;;;;8.67;4.63;;;;;8.40;94432.00;;;;7390058;19;20135;-77
2023/10/16 08:18:25;;;;;;;10.07;5.17;;;;;8.90;94442.00;;;;7387685;19;20141;-75
2023/10/16 08:21:00;;;;;;;9.93;5.33;;;;;8.80;94436.00;;;;7389305;19;20558;-75
2023/10/16 08:23:35;;;;;;;3.63;2.30;;;;;9.00;94432.00;;;;7388708;19;20144;-75
2023/10/16 08:26:28;;;;;;;3.47;2.40;;;;;8.80;94439.00;;;;7388246;19;20137;-76
2023/10/16 08:29:12;;;;;;;5.03;2.80;;;;;9.40;94437.00;;;;7387658;19;20149;-74
2023/10/16 08:34:44;;;;;;;4.57;1.93;;;;;9.30;94445.00;;;;7389214;19;20149;-76
2023/10/16 08:37:18;;;;;;;5.10;1.97;;;;;9.70;94447.00;;;;7387971;19;20204;-78
2023/10/16 08:39:50;;;;;;;3.22;1.80;;;;;9.70;94451.00;;;;7388248;19;20198;-77
2023/10/16 08:42:25;;;;;;;3.10;1.70;;;;;9.60;94449.00;;;;7387513;19;20152;-75
2023/10/16 08:45:27;;;;;;;2.47;1.70;;;;;9.40;94452.00;;;;7387877;19;20140;-75
2023/10/16 08:47:55;;;;;;;3.93;2.03;;;;;9.30;94448.00;;;;7388840;19;20615;-76
2023/10/16 08:50:40;;;;;;;2.50;1.70;;;;;9.50;94447.00;;;;7387342;19;20516;-79
2023/10/16 08:53:33;;;;;;;3.53;1.73;;;;;9.70;94442.00;;;;7389407;19;20591;-75
2023/10/16 08:56:09;;;;;;;2.60;1.85;;;;;9.90;94448.00;;;;7387866;19;20153;-74
2023/10/16 08:58:49;;;;;;;2.42;1.90;;;;;9.50;94445.00;;;;7386825;19;20129;-74
2023/10/16 09:01:28;;;;;;;3.35;1.83;;;;;9.60;94449.00;;;;7383973;19;20248;-76
2023/10/16 09:04:10;;;;;;;3.57;1.77;;;;;9.40;94455.00;;;;7385474;19;20201;-74
2023/10/16 09:06:38;;;;;;;4.85;1.70;;;;;9.50;94456.00;;;;7386552;19;20174;-75
2023/10/16 09:09:13;;;;;;;3.07;1.40;;;;;9.40;94449.00;;;;7387611;19;20220;-74
2023/10/16 09:11:45;;;;;;;2.73;1.60;;;;;9.60;94453.00;;;;7386444;19;20145;-74
2023/10/16 09:14:20;;;;;;;2.87;1.57;;;;;9.40;94447.00;;;;7387168;19;20504;-76
2023/10/16 09:16:51;;;;;;;3.80;1.70;;;;;9.40;94447.00;;;;7386817;19;20160;-74
2023/10/16 09:19:35;;;;;;;2.03;1.70;;;;;9.80;94441.00;;;;7385446;19;20603;-73
2023/10/16 09:22:28;;;;;;;4.97;1.80;;;;;10.70;94447.00;;;;7385360;19;20740;-76
2023/10/16 09:25:06;;;;;;;2.47;1.67;;;;;11.10;94433.00;;;;7386021;19;20517;-74
2023/10/16 09:27:52;;;;;;;4.30;1.92;;;;;11.00;94425.00;;;;7386091;19;20171;-75
2023/10/16 09:30:31;;;;;;;2.50;1.55;;;;;11.20;94436.00;;;;7387077;19;20197;-75
2023/10/16 09:33:06;;;;;;;3.88;2.00;;;;;11.80;94429.00;;;;7386213;19;20144;-73
2023/10/16 09:35:44;;;;;;;3.70;1.60;;;;;12.00;94419.00;;;;7387288;19;20147;-76
2023/10/16 09:38:19;;;;;;;3.40;2.22;;;;;11.70;94421.00;;;;7386231;19;20639;-77
2023/10/16 09:44:09;;;;;;;2.85;1.60;;;;;11.20;94423.00;;;;7387850;19;20160;-75
2023/10/16 09:49:23;;;;;;;2.72;1.83;;;;;11.70;94411.00;;;;7392350;19;20155;-78
2023/10/16 09:52:03;;;;;;;3.75;1.50;;;;;11.60;94408.00;;;;7392221;19;20687;-76
2023/10/16 09:54:37;;;;;;;2.08;1.38;;;;;11.40;94408.00;;;;7392866;19;20149;-77
2023/10/16 09:57:17;;;;;;;2.83;1.40;;;;;12.00;94406.00;;;;7392701;19;20579;-76
2023/10/16 09:59:54;;;;;;;2.03;0.98;;;;;12.00;94411.00;;;;7391312;19;20140;-77
2023/10/16 10:02:25;;;;;;;1.52;0.95;;;;;11.80;94414.00;;;;7391445;19;20180;-81
2023/10/16 10:05:09;;;;;;;2.75;1.50;;;;;12.00;94411.00;;;;7392168;19;20507;-79
2023/10/16 10:07:49;;;;;;;4.13;1.35;;;;;12.00;94411.00;;;;7393959;19;20163;-79
2023/10/16 10:13:10;;;;;;;1.83;1.33;;;;;12.60;94421.00;;;;7392294;19;20729;-77
2023/10/16 10:15:47;;;;;;;3.42;1.45;;;;;12.80;94413.00;;;;7392067;19;20528;-76
2023/10/16 10:18:32;;;;;;;4.53;1.30;;;;;12.50;94417.00;;;;7392421;19;20644;-81
2023/10/16 10:21:28;;;;;;;4.60;1.98;;;;;13.20;94408.00;;;;7390108;19;20248;-78
2023/10/16 10:24:02;;;;;;;1.30;1.20;;;;;12.80;94420.00;;;;7389599;19;20141;-77
2023/10/16 10:26:37;;;;;;;3.65;1.73;;;;;12.50;94421.00;;;;7390475;19;20466;-78
2023/10/16 10:29:12;;;;;;;2.67;1.70;;;;;12.60;94414.00;;;;7388913;19;20148;-77
2023/10/16 10:31:51;;;;;;;2.75;1.50;;;;;12.80;94415.00;;;;7390149;19;20628;-79
2023/10/16 10:34:28;;;;;;;4.80;1.80;;;;;12.50;94417.00;;;;7389914;19;20673;-81
2023/10/16 10:37:46;;;;;;;2.05;1.27;;;;;12.90;94409.00;;;;7392438;19;20212;-78
2023/10/16 10:40:33;;;;;;;3.28;1.30;;;;;12.90;94403.00;;;;7390873;19;20492;-79
2023/10/16 10:43:03;;;;;;;2.58;1.67;;;;;12.80;94398.00;;;;7393500;19;20125;-79
2023/10/16 10:45:45;;;;;;;2.63;1.58;;;;;13.10;94408.00;;;;7390910;19;20148;-78
2023/10/16 10:48:24;;;;;;;2.33;1.60;;;;;12.60;94409.00;;;;7391115;19;20217;-82
2023/10/16 10:51:03;;;;;;;4.22;2.03;;;;;13.10;94406.00;;;;7390591;19;20176;-77
2023/10/16 10:53:33;;;;;;;2.45;1.60;;;;;13.20;94397.00;;;;7387098;19;20989;-76
2023/10/16 10:56:07;;;;;;;1.58;1.45;;;;;13.00;94403.00;;;;7388895;19;20188;-80
2023/10/16 10:58:44;;;;;;;5.40;2.00;;;;;13.70;94403.00;;;;7392127;19;20145;-77
2023/10/16 11:01:29;;;;;;;4.15;1.63;;;;;13.80;94401.00;;;;7392563;19;20508;-79
2023/10/16 11:04:15;;;;;;;3.95;1.85;;;;;13.20;94385.00;;;;7390553;19;20606;-79
2023/10/16 11:06:49;;;;;;;2.38;1.70;;;;;13.60;94377.00;;;;7391451;19;20169;-78
2023/10/16 11:09:26;;;;;;;2.53;1.65;;;;;14.20;94379.00;;;;7388634;19;20156;-77
2023/10/16 11:12:00;;;;;;;3.47;1.45;;;;;14.30;94376.00;;;;7392430;19;20444;-78
2023/10/16 11:14:36;;;;;;;1.67;1.20;;;;;14.80;94366.00;;;;7390596;19;20211;-77
2023/10/16 11:17:11;;;;;;;3.17;1.20;;;;;14.80;94362.00;;;;7389974;19;20144;-78
2023/10/16 11:19:56;;;;;;;2.10;1.20;;;;;14.50;94364.00;;;;7388798;19;20653;-77
2023/10/16 11:22:31;;;;;;;1.60;1.13;;;;;14.70;94357.00;;;;7391602;19;20204;-78
2023/10/16 11:25:06;;;;;;;1.73;1.30;;;;;13.90;94358.00;;;;7391044;19;20137;-77
2023/10/16 11:27:34;;;;;;;1.20;1.08;;;;;14.60;94346.00;;;;7389423;19;20515;-79
2023/10/16 11:30:26;;;;;;;5.00;1.67;;;;;14.30;94348.00;;;;7387946;19;20147;-79
2023/10/16 11:32:55;;;;;;;1.75;1.20;;;;;14.50;94346.00;;;;7388002;19;20188;-77
2023/10/16 11:35:34;;;;;;;2.38;1.42;;;;;15.70;94335.00;;;;7391451;19;20136;-79
2023/10/16 11:38:28;;;;;;;2.80;1.48;;;;;15.60;94333.00;;;;7388948;19;20129;-79
2023/10/16 11:41:12;;;;;;;4.15;1.25;;;;;15.60;94332.00;;;;7389621;19;20165;-78
2023/10/16 11:43:52;;;;;;;7.50;2.53;;;;;15.90;94334.00;;;;7387907;19;20152;-78
2023/10/16 11:46:38;;;;;;;4.28;1.83;;;;;15.50;94328.00;;;;7388996;19;20167;-77
2023/10/16 11:52:08;;;;;;;2.42;1.40;;;;;16.10;94318.00;;;;7388235;19;20208;-78
2023/10/16 11:54:44;;;;;;;2.75;1.80;;;;;16.50;94322.00;;;;7388405;19;20516;-77
2023/10/16 11:57:19;;;;;;;4.40;1.70;;;;;16.80;94306.00;;;;7387639;19;20188;-77
2023/10/16 11:59:55;;;;;;;5.75;2.70;;;;;16.30;94312.00;;;;7384502;19;20607;-76
2023/10/16 12:02:30;;;;;;;2.90;1.50;;;;;17.00;94295.00;;;;7388030;19;20941;-77
2023/10/16 12:05:05;;;;;;;3.58;1.30;;;;;16.50;94304.00;;;;7388040;19;20153;-78
2023/10/16 12:07:43;;;;;;;2.45;1.60;;;;;16.60;94309.00;;;;7387287;19;20227;-78
2023/10/16 12:10:15;;;;;;;3.53;1.70;;;;;16.50;94299.00;;;;7388704;19;20680;-77
2023/10/16 12:12:51;;;;;;;1.85;1.40;;;;;16.70;94294.00;;;;7389788;19;20257;-78
2023/10/16 12:15:18;;;;;;;3.47;1.48;;;;;16.50;94297.00;;;;7386635;19;20558;-77
2023/10/16 12:17:55;;;;;;;2.45;1.30;;;;;16.40;94294.00;;;;7386973;19;20129;-79
2023/10/16 12:20:37;;;;;;;3.53;1.27;;;;;16.00;94292.00;;;;7386196;19;20162;-79
2023/10/16 12:23:20;;;;;;;2.72;1.42;;;;;16.50;94297.00;;;;7386489;19;20133;-81
2023/10/16 12:25:49;;;;;;;1.35;1.20;;;;;15.90;94289.00;;;;7386360;19;20228;-77
2023/10/16 12:28:25;;;;;;;4.15;1.30;;;;;15.50;94287.00;;;;7385714;19;20171;-76
2023/10/16 12:30:57;;;;;;;2.83;1.23;;;;;15.70;94274.00;;;;7385364;19;20129;-80
2023/10/16 12:33:31;;;;;;;2.13;1.30;;;;;16.10;94284.00;;;;7388752;19;20147;-79
2023/10/16 12:36:08;;;;;;;1.42;1.20;;;;;16.30;94280.00;;;;7383048;19;20234;-77
2023/10/16 12:38:44;;;;;;;1.55;1.27;;;;;15.90;94276.00;;;;7386595;19;20220;-79
2023/10/16 12:41:13;;;;;;;1.40;1.10;;;;;16.90;94264.00;;;;7389278;19;20164;-78
2023/10/16 12:43:47;;;;;;;1.30;1.20;;;;;17.60;94271.00;;;;7387611;19;20184;-79
2023/10/16 12:46:21;;;;;;;1.50;1.15;;;;;18.10;94263.00;;;;7386621;19;20154;-80
2023/10/16 12:48:55;;;;;;;2.75;1.50;;;;;18.40;94268.00;;;;7387356;19;20147;-78
2023/10/16 12:51:24;;;;;;;1.40;1.20;;;;;18.20;94261.00;;;;7386789;19;20155;-75
2023/10/16 12:53:52;;;;;;;1.10;0.95;;;;;17.50;94267.00;;;;7386067;19;20220;-78
2023/10/16 12:56:28;;;;;;;1.23;1.00;;;;;17.90;94252.00;;;;7388649;19;20605;-76
2023/10/16 12:58:57;;;;;;;1.33;1.08;;;;;17.80;94247.00;;;;7385358;19;20155;-78
2023/10/16 13:01:33;;;;;;;1.77;1.10;;;;;18.60;94242.00;;;;7386388;19;20161;-79
2023/10/16 13:04:13;;;;;;;2.03;1.20;;;;;18.40;94242.00;;;;7387545;19;20663;-77
2023/10/16 13:06:48;;;;;;;2.85;1.55;;;;;18.10;94249.00;;;;7385256;19;20244;-77
2023/10/16 13:09:18;;;;;;;4.05;1.70;;;;;17.20;94247.00;;;;7384576;19;20498;-81
2023/10/16 13:11:53;;;;;;;4.68;1.58;;;;;17.40;94245.00;;;;7383940;19;20727;-77
2023/10/16 13:14:20;;;;;;;3.72;1.70;;;;;17.00;94241.00;;;;7384835;19;20161;-78
2023/10/16 13:16:57;;;;;;;2.42;1.83;;;;;16.60;94243.00;;;;7385496;19;20144;-81
2023/10/16 13:19:31;;;;;;;3.17;1.83;;;;;17.40;94231.00;;;;7383487;19;20220;-82
2023/10/16 13:22:12;;;;;;;1.85;1.67;;;;;17.50;94243.00;;;;7385953;19;20619;-77
2023/10/16 13:24:47;;;;;;;3.95;1.90;;;;;17.20;94245.00;;;;7382871;19;20125;-80
2023/10/16 13:27:18;;;;;;;3.67;2.10;;;;;16.70;94240.00;;;;7380474;19;20155;-78
2023/10/16 13:29:53;;;;;;;2.97;2.03;;;;;16.50;94242.00;;;;7386508;19;20157;-78
2023/10/16 13:32:24;;;;;;;2.20;2.00;;;;;16.90;94239.00;;;;7385552;19;20159;-80
2023/10/16 13:35:00;;;;;;;2.75;1.92;;;;;15.70;94244.00;;;;7382181;19;20185;-80
2023/10/16 13:37:34;;;;;;;4.18;2.13;;;;;15.10;94253.00;;;;7385477;19;20705;-77
2023/10/16 13:40:24;;;;;;;5.38;2.35;;;;;15.20;94251.00;;;;7385213;19;20135;-77
2023/10/16 13:43:02;;;;;;;3.65;2.17;;;;;14.90;94253.00;;;;7384976;19;20769;-78
2023/10/16 13:45:30;;;;;;;2.63;1.88;;;;;14.20;94254.00;;;;7384912;19;20136;-78
2023/10/16 13:48:09;;;;;;;2.67;2.28;;;;;14.50;94250.00;;;;7385044;19;20822;-80
2023/10/16 13:50:47;;;;;;;2.90;2.10;;;;;14.50;94259.00;;;;7385153;19;20152;-77
2023/10/16 13:53:22;;;;;;;3.78;2.35;;;;;14.00;94247.00;;;;7383732;19;20193;-77
2023/10/16 13:55:54;;;;;;;2.90;1.95;;;;;14.00;94244.00;;;;7384829;19;20141;-78
2023/10/16 13:58:29;;;;;;;2.63;2.13;;;;;13.60;94237.00;;;;7385163;19;20503;-77
2023/10/16 14:00:57;;;;;;;2.78;1.95;;;;;13.90;94241.00;;;;7386042;19;20692;-76
2023/10/16 14:03:26;;;;;;;3.97;2.08;;;;;13.40;94246.00;;;;7382174;19;20176;-76
2023/10/16 14:06:00;;;;;;;2.60;1.95;;;;;13.10;94242.00;;;;7385837;19;20133;-79
2023/10/16 14:08:37;;;;;;;2.60;1.80;;;;;12.60;94246.00;;;;7385982;19;20172;-80
2023/10/16 14:11:12;;;;;;;2.53;1.95;;;;;11.90;94236.00;;;;7383806;19;20149;-79
2023/10/16 14:13:48;;;;;;;2.92;2.15;;;;;11.90;94238.00;;;;7388160;19;20152;-75
2023/10/16 14:16:23;;;;;;;3.40;2.20;;;;;11.90;94238.00;;;;7386588;19;20620;-79
2023/10/16 14:18:53;;;;;;;6.28;1.92;;;;;11.90;94243.00;;;;7385854;19;20177;-78
2023/10/16 14:21:27;;;;;;;5.20;2.17;;;;;11.90;94242.00;;;;7389619;19;20228;-82
2023/10/16 14:24:01;;;;;;;3.60;1.95;;;;;12.00;94242.00;;;;7387213;19;20564;-81
2023/10/16 14:26:36;;;;;;;3.47;2.03;;;;;12.10;94233.00;;;;7384478;19;20148;-78
2023/10/16 14:29:10;;;;;;;2.80;1.58;;;;;11.80;94249.00;;;;7380306;19;20153;-78
2023/10/16 14:31:38;;;;;;;2.55;1.75;;;;;11.70;94239.00;;;;7392472;19;20136;-76
2023/10/16 14:34:18;;;;;;;3.20;1.70;;;;;11.20;94246.00;;;;7389409;19;20175;-76
2023/10/16 14:36:53;;;;;;;1.88;1.30;;;;;11.10;94244.00;;;;7394475;19;20631;-77
2023/10/16 14:39:28;;;;;;;3.47;1.50;;;;;10.90;94250.00;;;;7394359;19;20133;-75
2023/10/16 14:42:05;;;;;;;1.98;1.40;;;;;10.60;94241.00;;;;7386150;19;20160;-79
2023/10/16 14:44:44;;;;;;;2.47;1.55;;;;;10.60;94243.00;;;;7391969;19;20149;-79
2023/10/16 14:47:15;;;;;;;5.90;2.33;;;;;10.90;94243.00;;;;7393184;19;20244;-80
2023/10/16 14:49:49;;;;;;;3.05;1.80;;;;;10.80;94237.00;;;;7391731;19;20152;-79
2023/10/16 14:52:25;;;;;;;2.13;1.67;;;;;10.60;94238.00;;;;7392800;19;20152;-79